sensor_id;sensor_type;location;lat;lon;timestamp;temperature;humidity
1447;DHT22;717;51.522;7.266;2023-10-13T00:00:34;20.90;99.90
1447;DHT22;717;51.522;7.266;2023-10-13T00:03:08;20.90;99.90
1447;DHT22;717;51.522;7.266;2023-10-13T00:05:45;20.90;99.90
1447;DHT22;717;51.522;7.266;2023-10-13T00:08:19;21.00;99.90
1447;DHT22;717;51.522;7.266;2023-10-13T00:10:51;21.00;99.90
1447;DHT22;717;51.522;7.266;2023-10-13T00:13:27;21.00;99.90
1447;DHT22;717;51.522;7.266;2023-10-13T00:15:59;21.00;99.90
1447;DHT22;717;51.522;7.266;2023-10-13T00:18:31;21.00;99.90
1447;DHT22;717;51.522;7.266;2023-10-13T00:21:11;21.00;99.90
1447;DHT22;717;51.522;7.266;2023-10-13T00:23:47;21.00;99.90
1447;DHT22;717;51.522;7.266;2023-10-13T00:26:24;21.00;99.90
1447;DHT22;717;51.522;7.266;2023-10-13T00:29:00;21.00;99.90
1447;DHT22;717;51.522;7.266;2023-10-13T00:31:38;21.00;99.90
1447;DHT22;717;51.522;7.266;2023-10-13T00:34:12;21.00;99.90
1447;DHT22;717;51.522;7.266;2023-10-13T00:36:49;21.00;99.90
1447;DHT22;717;51.522;7.266;2023-10-13T00:39:40;21.00;99.90
1447;DHT22;717;51.522;7.266;2023-10-13T00:42:12;21.00;99.90
1447;DHT22;717;51.522;7.266;2023-10-13T00:44:51;21.00;99.90
1447;DHT22;717;51.522;7.266;2023-10-13T00:47:22;21.00;99.90
1447;DHT22;717;51.522;7.266;2023-10-13T00:50:06;21.10;99.90
1447;DHT22;717;51.522;7.266;2023-10-13T00:52:40;21.10;99.90
1447;DHT22;717;51.522;7.266;2023-10-13T00:55:14;21.10;99.90
1447;DHT22;717;51.522;7.266;2023-10-13T00:57:44;21.10;99.90
1447;DHT22;717;51.522;7.266;2023-10-13T01:00:16;21.10;99.90
1447;DHT22;717;51.522;7.266;2023-10-13T01:02:53;21.10;99.90
1447;DHT22;717;51.522;7.266;2023-10-13T01:05:24;21.10;99.90
1447;DHT22;717;51.522;7.266;2023-10-13T01:07:59;21.10;99.90
1447;DHT22;717;51.522;7.266;2023-10-13T01:10:30;21.20;99.90
1447;DHT22;717;51.522;7.266;2023-10-13T01:13:00;21.20;99.90
1447;DHT22;717;51.522;7.266;2023-10-13T01:15:30;21.20;99.90
1447;DHT22;717;51.522;7.266;2023-10-13T01:18:06;21.20;99.90
1447;DHT22;717;51.522;7.266;2023-10-13T01:20:40;21.20;99.90
1447;DHT22;717;51.522;7.266;2023-10-13T01:23:15;21.20;99.90
1447;DHT22;717;51.522;7.266;2023-10-13T01:25:51;21.20;99.90
1447;DHT22;717;51.522;7.266;2023-10-13T01:28:21;21.20;99.90
1447;DHT22;717;51.522;7.266;2023-10-13T01:30:51;21.20;99.90
1447;DHT22;717;51.522;7.266;2023-10-13T01:33:19;21.20;99.90
1447;DHT22;717;51.522;7.266;2023-10-13T01:35:55;21.20;99.90
1447;DHT22;717;51.522;7.266;2023-10-13T01:38:28;21.20;99.90
1447;DHT22;717;51.522;7.266;2023-10-13T01:41:00;21.30;99.90
1447;DHT22;717;51.522;7.266;2023-10-13T01:43:31;21.30;99.90
1447;DHT22;717;51.522;7.266;2023-10-13T01:46:02;21.30;99.90
1447;DHT22;717;51.522;7.266;2023-10-13T01:48:30;21.30;99.90
1447;DHT22;717;51.522;7.266;2023-10-13T01:51:06;21.30;99.90
1447;DHT22;717;51.522;7.266;2023-10-13T01:53:40;21.30;99.90
1447;DHT22;717;51.522;7.266;2023-10-13T01:56:11;21.30;99.90
1447;DHT22;717;51.522;7.266;2023-10-13T01:58:39;21.30;99.90
1447;DHT22;717;51.522;7.266;2023-10-13T02:01:15;21.30;99.90
1447;DHT22;717;51.522;7.266;2023-10-13T02:03:55;21.30;99.90
1447;DHT22;717;51.522;7.266;2023-10-13T02:06:32;21.30;99.90
1447;DHT22;717;51.522;7.266;2023-10-13T02:09:04;21.30;99.90
1447;DHT22;717;51.522;7.266;2023-10-13T02:11:44;21.30;99.90
1447;DHT22;717;51.522;7.266;2023-10-13T02:14:13;21.30;99.90
1447;DHT22;717;51.522;7.266;2023-10-13T02:16:44;21.30;99.90
1447;DHT22;717;51.522;7.266;2023-10-13T02:19:14;21.30;99.90
1447;DHT22;717;51.522;7.266;2023-10-13T02:21:48;21.30;99.90
1447;DHT22;717;51.522;7.266;2023-10-13T02:24:28;21.30;99.90
1447;DHT22;717;51.522;7.266;2023-10-13T02:26:59;21.40;99.90
1447;DHT22;717;51.522;7.266;2023-10-13T02:29:36;21.30;99.90
1447;DHT22;717;51.522;7.266;2023-10-13T02:32:06;21.40;99.90
1447;DHT22;717;51.522;7.266;2023-10-13T02:34:40;21.40;99.90
1447;DHT22;717;51.522;7.266;2023-10-13T02:37:11;21.40;99.90
1447;DHT22;717;51.522;7.266;2023-10-13T02:39:42;21.40;99.90
1447;DHT22;717;51.522;7.266;2023-10-13T02:42:13;21.40;99.90
1447;DHT22;717;51.522;7.266;2023-10-13T02:44:51;21.40;99.90
1447;DHT22;717;51.522;7.266;2023-10-13T02:47:24;21.40;99.90
1447;DHT22;717;51.522;7.266;2023-10-13T02:49:54;21.40;99.90
1447;DHT22;717;51.522;7.266;2023-10-13T02:52:27;21.40;99.90
1447;DHT22;717;51.522;7.266;2023-10-13T02:54:58;21.40;99.90
1447;DHT22;717;51.522;7.266;2023-10-13T02:57:28;21.40;99.90
1447;DHT22;717;51.522;7.266;2023-10-13T03:00:01;21.40;99.90
1447;DHT22;717;51.522;7.266;2023-10-13T03:02:43;21.40;99.90
1447;DHT22;717;51.522;7.266;2023-10-13T03:05:14;21.40;99.90
1447;DHT22;717;51.522;7.266;2023-10-13T03:07:48;21.40;99.90
1447;DHT22;717;51.522;7.266;2023-10-13T03:10:20;21.40;99.90
1447;DHT22;717;51.522;7.266;2023-10-13T03:12:56;21.40;99.90
1447;DHT22;717;51.522;7.266;2023-10-13T03:15:23;21.40;99.90
1447;DHT22;717;51.522;7.266;2023-10-13T03:17:57;21.40;99.90
1447;DHT22;717;51.522;7.266;2023-10-13T03:20:25;21.40;99.90
1447;DHT22;717;51.522;7.266;2023-10-13T03:23:02;21.40;99.90
1447;DHT22;717;51.522;7.266;2023-10-13T03:25:39;21.40;99.90
1447;DHT22;717;51.522;7.266;2023-10-13T03:28:20;21.40;99.90
1447;DHT22;717;51.522;7.266;2023-10-13T03:30:52;21.50;99.90
1447;DHT22;717;51.522;7.266;2023-10-13T03:33:28;21.50;99.90
1447;DHT22;717;51.522;7.266;2023-10-13T03:36:00;21.50;99.90
1447;DHT22;717;51.522;7.266;2023-10-13T03:38:34;21.50;99.90
1447;DHT22;717;51.522;7.266;2023-10-13T03:41:09;21.50;99.90
1447;DHT22;717;51.522;7.266;2023-10-13T03:43:47;21.50;99.90
1447;DHT22;717;51.522;7.266;2023-10-13T03:46:19;21.50;99.90
1447;DHT22;717;51.522;7.266;2023-10-13T03:48:50;21.50;99.90
1447;DHT22;717;51.522;7.266;2023-10-13T03:51:21;21.50;99.90
1447;DHT22;717;51.522;7.266;2023-10-13T03:53:58;21.50;99.90
1447;DHT22;717;51.522;7.266;2023-10-13T03:56:37;21.50;99.90
1447;DHT22;717;51.522;7.266;2023-10-13T03:59:12;21.50;99.90
1447;DHT22;717;51.522;7.266;2023-10-13T04:01:50;21.50;99.90
1447;DHT22;717;51.522;7.266;2023-10-13T04:04:30;21.50;99.90
1447;DHT22;717;51.522;7.266;2023-10-13T04:07:15;21.50;99.90
1447;DHT22;717;51.522;7.266;2023-10-13T04:09:57;21.50;99.90
1447;DHT22;717;51.522;7.266;2023-10-13T04:13:03;21.50;99.90
1447;DHT22;717;51.522;7.266;2023-10-13T04:15:46;21.50;99.90
1447;DHT22;717;51.522;7.266;2023-10-13T04:18:28;21.50;99.90
1447;DHT22;717;51.522;7.266;2023-10-13T04:21:17;21.50;99.90
1447;DHT22;717;51.522;7.266;2023-10-13T04:24:08;21.50;99.90
1447;DHT22;717;51.522;7.266;2023-10-13T04:26:38;21.50;99.90
1447;DHT22;717;51.522;7.266;2023-10-13T04:29:29;21.50;99.90
1447;DHT22;717;51.522;7.266;2023-10-13T04:32:13;21.50;99.90
1447;DHT22;717;51.522;7.266;2023-10-13T04:34:56;21.50;99.90
1447;DHT22;717;51.522;7.266;2023-10-13T04:37:28;21.60;99.90
1447;DHT22;717;51.522;7.266;2023-10-13T04:40:01;21.60;99.90
1447;DHT22;717;51.522;7.266;2023-10-13T04:42:37;21.60;99.90
1447;DHT22;717;51.522;7.266;2023-10-13T04:45:23;21.60;99.90
1447;DHT22;717;51.522;7.266;2023-10-13T04:48:14;21.60;99.90
1447;DHT22;717;51.522;7.266;2023-10-13T04:51:01;21.50;99.90
1447;DHT22;717;51.522;7.266;2023-10-13T04:53:44;21.50;99.90
1447;DHT22;717;51.522;7.266;2023-10-13T04:56:26;21.60;99.90
1447;DHT22;717;51.522;7.266;2023-10-13T04:59:22;21.50;99.90
1447;DHT22;717;51.522;7.266;2023-10-13T05:02:07;21.50;99.90
1447;DHT22;717;51.522;7.266;2023-10-13T05:05:02;21.50;99.90
1447;DHT22;717;51.522;7.266;2023-10-13T05:07:47;21.50;99.90
1447;DHT22;717;51.522;7.266;2023-10-13T05:10:30;21.50;99.90
1447;DHT22;717;51.522;7.266;2023-10-13T05:13:13;21.50;99.90
1447;DHT22;717;51.522;7.266;2023-10-13T05:15:55;21.50;99.90
1447;DHT22;717;51.522;7.266;2023-10-13T05:18:41;21.50;99.90
1447;DHT22;717;51.522;7.266;2023-10-13T05:21:23;21.40;99.90
1447;DHT22;717;51.522;7.266;2023-10-13T05:24:06;21.40;99.90
1447;DHT22;717;51.522;7.266;2023-10-13T05:26:50;21.40;99.90
1447;DHT22;717;51.522;7.266;2023-10-13T05:29:33;21.40;99.90
1447;DHT22;717;51.522;7.266;2023-10-13T05:32:16;21.40;99.90
1447;DHT22;717;51.522;7.266;2023-10-13T05:35:01;21.40;99.90
1447;DHT22;717;51.522;7.266;2023-10-13T05:37:44;21.40;99.90
1447;DHT22;717;51.522;7.266;2023-10-13T05:40:26;21.40;99.90
1447;DHT22;717;51.522;7.266;2023-10-13T05:43:09;21.40;99.90
1447;DHT22;717;51.522;7.266;2023-10-13T05:45:52;21.40;99.90
1447;DHT22;717;51.522;7.266;2023-10-13T05:48:34;21.40;99.90
1447;DHT22;717;51.522;7.266;2023-10-13T05:51:34;21.40;99.90
1447;DHT22;717;51.522;7.266;2023-10-13T05:54:11;21.40;99.90
1447;DHT22;717;51.522;7.266;2023-10-13T05:56:54;21.40;99.90
1447;DHT22;717;51.522;7.266;2023-10-13T05:59:38;21.40;99.90
1447;DHT22;717;51.522;7.266;2023-10-13T06:02:21;21.40;99.90
1447;DHT22;717;51.522;7.266;2023-10-13T06:05:05;21.40;99.90
1447;DHT22;717;51.522;7.266;2023-10-13T06:07:50;21.40;99.90
1447;DHT22;717;51.522;7.266;2023-10-13T06:10:33;21.30;99.90
1447;DHT22;717;51.522;7.266;2023-10-13T06:13:16;21.20;99.90
1447;DHT22;717;51.522;7.266;2023-10-13T06:15:58;21.20;99.90
1447;DHT22;717;51.522;7.266;2023-10-13T06:18:41;21.10;99.90
1447;DHT22;717;51.522;7.266;2023-10-13T06:21:23;21.00;99.90
1447;DHT22;717;51.522;7.266;2023-10-13T06:24:09;20.90;99.90
1447;DHT22;717;51.522;7.266;2023-10-13T06:26:51;20.80;99.90
1447;DHT22;717;51.522;7.266;2023-10-13T06:29:34;20.80;99.90
1447;DHT22;717;51.522;7.266;2023-10-13T06:32:04;20.70;99.90
1447;DHT22;717;51.522;7.266;2023-10-13T06:34:41;20.70;99.90
1447;DHT22;717;51.522;7.266;2023-10-13T06:37:12;20.60;99.90
1447;DHT22;717;51.522;7.266;2023-10-13T06:40:01;20.60;99.90
1447;DHT22;717;51.522;7.266;2023-10-13T06:42:33;20.60;99.90
1447;DHT22;717;51.522;7.266;2023-10-13T06:45:10;20.60;99.90
1447;DHT22;717;51.522;7.266;2023-10-13T06:47:44;20.60;99.90
1447;DHT22;717;51.522;7.266;2023-10-13T06:50:16;20.60;99.90
1447;DHT22;717;51.522;7.266;2023-10-13T06:52:46;20.60;99.90
1447;DHT22;717;51.522;7.266;2023-10-13T06:55:19;20.60;99.90
1447;DHT22;717;51.522;7.266;2023-10-13T06:57:53;20.60;99.90
1447;DHT22;717;51.522;7.266;2023-10-13T07:00:27;20.50;99.90
1447;DHT22;717;51.522;7.266;2023-10-13T07:03:02;20.60;99.90
1447;DHT22;717;51.522;7.266;2023-10-13T07:05:45;20.60;99.90
1447;DHT22;717;51.522;7.266;2023-10-13T07:08:18;20.60;99.90
1447;DHT22;717;51.522;7.266;2023-10-13T07:10:54;20.60;99.90
1447;DHT22;717;51.522;7.266;2023-10-13T07:13:33;20.60;99.90
1447;DHT22;717;51.522;7.266;2023-10-13T07:16:06;20.60;99.90
1447;DHT22;717;51.522;7.266;2023-10-13T07:18:55;20.60;99.90
1447;DHT22;717;51.522;7.266;2023-10-13T07:21:33;20.60;99.90
1447;DHT22;717;51.522;7.266;2023-10-13T07:24:12;20.60;99.90
1447;DHT22;717;51.522;7.266;2023-10-13T07:26:45;20.70;99.90
1447;DHT22;717;51.522;7.266;2023-10-13T07:29:25;20.70;99.90
1447;DHT22;717;51.522;7.266;2023-10-13T07:31:55;20.70;99.90
1447;DHT22;717;51.522;7.266;2023-10-13T07:34:25;20.70;99.90
1447;DHT22;717;51.522;7.266;2023-10-13T07:36:59;20.80;99.90
1447;DHT22;717;51.522;7.266;2023-10-13T07:39:35;20.80;99.90
1447;DHT22;717;51.522;7.266;2023-10-13T07:42:10;20.90;99.90
1447;DHT22;717;51.522;7.266;2023-10-13T07:44:46;20.90;99.90
1447;DHT22;717;51.522;7.266;2023-10-13T07:47:17;21.00;99.90
1447;DHT22;717;51.522;7.266;2023-10-13T07:49:47;21.00;99.90
1447;DHT22;717;51.522;7.266;2023-10-13T07:52:18;21.00;99.90
1447;DHT22;717;51.522;7.266;2023-10-13T07:55:04;21.10;99.90
1447;DHT22;717;51.522;7.266;2023-10-13T07:57:50;21.10;99.90
1447;DHT22;717;51.522;7.266;2023-10-13T08:00:26;21.20;99.90
1447;DHT22;717;51.522;7.266;2023-10-13T08:03:14;21.20;99.90
1447;DHT22;717;51.522;7.266;2023-10-13T08:05:59;21.20;99.90
1447;DHT22;717;51.522;7.266;2023-10-13T08:08:48;21.30;99.90
1447;DHT22;717;51.522;7.266;2023-10-13T08:11:22;21.30;99.90
1447;DHT22;717;51.522;7.266;2023-10-13T08:13:56;21.30;99.90
1447;DHT22;717;51.522;7.266;2023-10-13T08:16:56;21.30;99.90
1447;DHT22;717;51.522;7.266;2023-10-13T08:19:34;21.40;99.90
1447;DHT22;717;51.522;7.266;2023-10-13T08:22:13;21.40;99.90
1447;DHT22;717;51.522;7.266;2023-10-13T08:24:53;21.50;99.90
1447;DHT22;717;51.522;7.266;2023-10-13T08:27:42;21.50;99.90
1447;DHT22;717;51.522;7.266;2023-10-13T08:30:19;21.50;99.90
1447;DHT22;717;51.522;7.266;2023-10-13T08:33:09;21.60;99.90
1447;DHT22;717;51.522;7.266;2023-10-13T08:35:50;21.60;99.90
1447;DHT22;717;51.522;7.266;2023-10-13T08:38:55;21.60;99.90
1447;DHT22;717;51.522;7.266;2023-10-13T08:41:45;21.60;99.90
1447;DHT22;717;51.522;7.266;2023-10-13T08:44:29;21.60;99.90
1447;DHT22;717;51.522;7.266;2023-10-13T08:47:08;21.70;99.90
1447;DHT22;717;51.522;7.266;2023-10-13T08:49:45;21.70;99.90
1447;DHT22;717;51.522;7.266;2023-10-13T08:52:19;21.70;99.90
1447;DHT22;717;51.522;7.266;2023-10-13T08:55:04;21.70;99.90
1447;DHT22;717;51.522;7.266;2023-10-13T08:57:47;21.80;99.90
1447;DHT22;717;51.522;7.266;2023-10-13T09:00:20;21.80;99.90
1447;DHT22;717;51.522;7.266;2023-10-13T09:03:06;21.80;99.90
1447;DHT22;717;51.522;7.266;2023-10-13T09:05:49;21.80;99.90
1447;DHT22;717;51.522;7.266;2023-10-13T09:08:34;21.80;99.90
1447;DHT22;717;51.522;7.266;2023-10-13T09:11:25;21.80;99.90
1447;DHT22;717;51.522;7.266;2023-10-13T09:14:13;21.90;99.90
1447;DHT22;717;51.522;7.266;2023-10-13T09:17:04;21.90;99.90
1447;DHT22;717;51.522;7.266;2023-10-13T09:19:49;21.90;99.90
1447;DHT22;717;51.522;7.266;2023-10-13T09:22:25;21.90;99.90
1447;DHT22;717;51.522;7.266;2023-10-13T09:25:04;21.90;99.90
1447;DHT22;717;51.522;7.266;2023-10-13T09:27:33;22.00;99.90
1447;DHT22;717;51.522;7.266;2023-10-13T09:30:06;22.00;99.90
1447;DHT22;717;51.522;7.266;2023-10-13T09:32:36;22.00;99.90
1447;DHT22;717;51.522;7.266;2023-10-13T09:35:20;22.00;99.90
1447;DHT22;717;51.522;7.266;2023-10-13T09:37:50;22.10;99.90
1447;DHT22;717;51.522;7.266;2023-10-13T09:40:24;22.10;99.90
1447;DHT22;717;51.522;7.266;2023-10-13T09:42:56;22.20;99.90
1447;DHT22;717;51.522;7.266;2023-10-13T09:45:32;22.20;99.90
1447;DHT22;717;51.522;7.266;2023-10-13T09:48:04;22.20;99.90
1447;DHT22;717;51.522;7.266;2023-10-13T09:50:47;22.30;99.90
1447;DHT22;717;51.522;7.266;2023-10-13T09:53:18;22.50;99.90
1447;DHT22;717;51.522;7.266;2023-10-13T09:55:48;22.50;99.90
1447;DHT22;717;51.522;7.266;2023-10-13T09:58:19;22.60;99.90
1447;DHT22;717;51.522;7.266;2023-10-13T10:00:58;22.60;99.90
1447;DHT22;717;51.522;7.266;2023-10-13T10:03:44;22.70;99.90
1447;DHT22;717;51.522;7.266;2023-10-13T10:06:24;22.70;99.90
1447;DHT22;717;51.522;7.266;2023-10-13T10:09:07;22.80;99.90
1447;DHT22;717;51.522;7.266;2023-10-13T10:12:02;22.90;99.90
1447;DHT22;717;51.522;7.266;2023-10-13T10:17:42;23.00;99.90
1447;DHT22;717;51.522;7.266;2023-10-13T10:20:12;23.10;99.90
1447;DHT22;717;51.522;7.266;2023-10-13T10:22:58;23.20;99.90
1447;DHT22;717;51.522;7.266;2023-10-13T10:25:30;23.20;99.90
1447;DHT22;717;51.522;7.266;2023-10-13T10:28:03;23.20;99.90
1447;DHT22;717;51.522;7.266;2023-10-13T10:30:37;23.30;99.90
1447;DHT22;717;51.522;7.266;2023-10-13T10:33:10;23.30;99.90
1447;DHT22;717;51.522;7.266;2023-10-13T10:35:44;23.30;99.90
1447;DHT22;717;51.522;7.266;2023-10-13T10:38:18;23.40;99.90
1447;DHT22;717;51.522;7.266;2023-10-13T10:41:01;23.40;99.90
1447;DHT22;717;51.522;7.266;2023-10-13T10:43:37;23.40;99.90
1447;DHT22;717;51.522;7.266;2023-10-13T10:46:15;23.40;99.90
1447;DHT22;717;51.522;7.266;2023-10-13T10:48:46;23.40;99.90
1447;DHT22;717;51.522;7.266;2023-10-13T10:51:16;23.50;99.90
1447;DHT22;717;51.522;7.266;2023-10-13T10:53:58;23.50;99.90
1447;DHT22;717;51.522;7.266;2023-10-13T10:56:38;23.50;99.90
1447;DHT22;717;51.522;7.266;2023-10-13T10:59:08;23.50;99.90
1447;DHT22;717;51.522;7.266;2023-10-13T11:01:46;23.60;99.90
1447;DHT22;717;51.522;7.266;2023-10-13T11:04:20;23.60;99.90
1447;DHT22;717;51.522;7.266;2023-10-13T11:07:01;23.60;99.90
1447;DHT22;717;51.522;7.266;2023-10-13T11:09:36;23.70;99.90
1447;DHT22;717;51.522;7.266;2023-10-13T11:12:20;23.70;99.90
1447;DHT22;717;51.522;7.266;2023-10-13T11:15:02;23.80;99.90
1447;DHT22;717;51.522;7.266;2023-10-13T11:17:33;23.80;99.90
1447;DHT22;717;51.522;7.266;2023-10-13T11:20:11;23.90;99.90
1447;DHT22;717;51.522;7.266;2023-10-13T11:22:53;23.90;99.90
1447;DHT22;717;51.522;7.266;2023-10-13T11:25:26;24.00;99.90
1447;DHT22;717;51.522;7.266;2023-10-13T11:28:10;24.00;99.90
1447;DHT22;717;51.522;7.266;2023-10-13T11:30:45;24.00;99.90
1447;DHT22;717;51.522;7.266;2023-10-13T11:33:18;24.10;99.90
1447;DHT22;717;51.522;7.266;2023-10-13T11:35:51;24.10;99.90
1447;DHT22;717;51.522;7.266;2023-10-13T11:38:31;24.10;99.90
1447;DHT22;717;51.522;7.266;2023-10-13T11:41:12;24.20;99.90
1447;DHT22;717;51.522;7.266;2023-10-13T11:43:44;24.20;99.90
1447;DHT22;717;51.522;7.266;2023-10-13T11:46:40;24.20;99.90
1447;DHT22;717;51.522;7.266;2023-10-13T11:49:23;24.30;99.90
1447;DHT22;717;51.522;7.266;2023-10-13T11:52:04;24.30;99.90
1447;DHT22;717;51.522;7.266;2023-10-13T11:54:44;24.40;99.90
1447;DHT22;717;51.522;7.266;2023-10-13T11:57:17;24.40;99.90
1447;DHT22;717;51.522;7.266;2023-10-13T11:59:48;24.50;99.90
1447;DHT22;717;51.522;7.266;2023-10-13T12:02:47;24.50;99.90
1447;DHT22;717;51.522;7.266;2023-10-13T12:05:32;24.70;99.90
1447;DHT22;717;51.522;7.266;2023-10-13T12:08:26;24.70;99.90
1447;DHT22;717;51.522;7.266;2023-10-13T12:11:00;24.90;99.90
1447;DHT22;717;51.522;7.266;2023-10-13T12:13:52;24.90;99.90
1447;DHT22;717;51.522;7.266;2023-10-13T12:16:23;25.00;99.90
1447;DHT22;717;51.522;7.266;2023-10-13T12:19:02;25.00;99.90
1447;DHT22;717;51.522;7.266;2023-10-13T12:21:37;25.10;99.90
1447;DHT22;717;51.522;7.266;2023-10-13T12:24:10;25.20;99.90
1447;DHT22;717;51.522;7.266;2023-10-13T12:26:49;25.20;99.90
1447;DHT22;717;51.522;7.266;2023-10-13T12:31:46;25.30;99.90
1447;DHT22;717;51.522;7.266;2023-10-13T12:34:28;25.40;99.90
1447;DHT22;717;51.522;7.266;2023-10-13T12:37:21;25.40;99.90
1447;DHT22;717;51.522;7.266;2023-10-13T12:40:07;25.40;99.90
1447;DHT22;717;51.522;7.266;2023-10-13T12:42:50;25.50;99.90
1447;DHT22;717;51.522;7.266;2023-10-13T12:45:33;25.60;99.90
1447;DHT22;717;51.522;7.266;2023-10-13T12:48:27;25.60;99.90
1447;DHT22;717;51.522;7.266;2023-10-13T12:51:10;25.60;99.90
1447;DHT22;717;51.522;7.266;2023-10-13T12:54:07;25.70;99.90
1447;DHT22;717;51.522;7.266;2023-10-13T12:56:47;25.70;99.90
1447;DHT22;717;51.522;7.266;2023-10-13T12:59:24;25.80;99.90
1447;DHT22;717;51.522;7.266;2023-10-13T13:01:56;25.80;99.90
1447;DHT22;717;51.522;7.266;2023-10-13T13:04:29;25.80;99.90
1447;DHT22;717;51.522;7.266;2023-10-13T13:07:04;25.80;99.90
1447;DHT22;717;51.522;7.266;2023-10-13T13:09:40;25.90;99.90
1447;DHT22;717;51.522;7.266;2023-10-13T13:12:11;25.80;99.90
1447;DHT22;717;51.522;7.266;2023-10-13T13:14:41;25.80;99.90
1447;DHT22;717;51.522;7.266;2023-10-13T13:17:13;25.80;99.90
1447;DHT22;717;51.522;7.266;2023-10-13T13:19:46;25.80;99.90
1447;DHT22;717;51.522;7.266;2023-10-13T13:22:17;25.80;99.90
1447;DHT22;717;51.522;7.266;2023-10-13T13:24:47;25.80;99.90
1447;DHT22;717;51.522;7.266;2023-10-13T13:27:19;25.80;99.90
1447;DHT22;717;51.522;7.266;2023-10-13T13:29:51;25.80;99.90
1447;DHT22;717;51.522;7.266;2023-10-13T13:32:24;25.80;99.90
1447;DHT22;717;51.522;7.266;2023-10-13T13:34:58;25.80;99.90
1447;DHT22;717;51.522;7.266;2023-10-13T13:37:32;25.80;99.90
1447;DHT22;717;51.522;7.266;2023-10-13T13:40:05;25.80;99.90
1447;DHT22;717;51.522;7.266;2023-10-13T13:42:45;25.90;99.90
1447;DHT22;717;51.522;7.266;2023-10-13T13:45:15;25.90;99.90
1447;DHT22;717;51.522;7.266;2023-10-13T13:47:49;25.90;99.90
1447;DHT22;717;51.522;7.266;2023-10-13T13:50:25;25.90;99.90
1447;DHT22;717;51.522;7.266;2023-10-13T13:52:57;25.90;99.90
1447;DHT22;717;51.522;7.266;2023-10-13T13:55:27;25.90;99.90
1447;DHT22;717;51.522;7.266;2023-10-13T13:58:03;26.00;99.90
1447;DHT22;717;51.522;7.266;2023-10-13T14:00:37;25.90;99.90
1447;DHT22;717;51.522;7.266;2023-10-13T14:03:15;25.80;99.90
1447;DHT22;717;51.522;7.266;2023-10-13T14:06:01;25.80;99.90
1447;DHT22;717;51.522;7.266;2023-10-13T14:08:33;25.80;99.90
1447;DHT22;717;51.522;7.266;2023-10-13T14:11:03;25.80;99.90
1447;DHT22;717;51.522;7.266;2023-10-13T14:13:57;25.80;99.90
1447;DHT22;717;51.522;7.266;2023-10-13T14:16:31;25.80;99.90
1447;DHT22;717;51.522;7.266;2023-10-13T14:19:04;25.80;99.90
1447;DHT22;717;51.522;7.266;2023-10-13T14:21:37;25.80;99.90
1447;DHT22;717;51.522;7.266;2023-10-13T14:24:09;25.80;99.90
1447;DHT22;717;51.522;7.266;2023-10-13T14:26:45;25.80;99.90
1447;DHT22;717;51.522;7.266;2023-10-13T14:29:19;25.80;99.90
1447;DHT22;717;51.522;7.266;2023-10-13T14:31:54;25.90;99.90
1447;DHT22;717;51.522;7.266;2023-10-13T14:34:26;25.80;99.90
1447;DHT22;717;51.522;7.266;2023-10-13T14:36:59;25.80;99.90
1447;DHT22;717;51.522;7.266;2023-10-13T14:39:31;25.90;99.90
1447;DHT22;717;51.522;7.266;2023-10-13T14:42:03;25.80;99.90
1447;DHT22;717;51.522;7.266;2023-10-13T14:44:34;25.80;99.90
1447;DHT22;717;51.522;7.266;2023-10-13T14:47:04;25.80;99.90
1447;DHT22;717;51.522;7.266;2023-10-13T14:49:36;25.70;99.90
1447;DHT22;717;51.522;7.266;2023-10-13T14:52:10;25.70;99.90
1447;DHT22;717;51.522;7.266;2023-10-13T14:54:41;25.70;99.90
1447;DHT22;717;51.522;7.266;2023-10-13T14:57:11;25.70;99.90
1447;DHT22;717;51.522;7.266;2023-10-13T14:59:41;25.70;99.90
1447;DHT22;717;51.522;7.266;2023-10-13T15:02:11;25.70;99.90
1447;DHT22;717;51.522;7.266;2023-10-13T15:04:41;25.70;99.90
1447;DHT22;717;51.522;7.266;2023-10-13T15:07:18;25.60;99.90
1447;DHT22;717;51.522;7.266;2023-10-13T15:09:49;25.60;99.90
1447;DHT22;717;51.522;7.266;2023-10-13T15:12:20;25.60;99.90
1447;DHT22;717;51.522;7.266;2023-10-13T15:14:55;25.60;99.90
1447;DHT22;717;51.522;7.266;2023-10-13T15:17:26;25.60;99.90
1447;DHT22;717;51.522;7.266;2023-10-13T15:19:56;25.50;99.90
1447;DHT22;717;51.522;7.266;2023-10-13T15:22:31;25.60;99.90
1447;DHT22;717;51.522;7.266;2023-10-13T15:25:02;25.50;99.90
1447;DHT22;717;51.522;7.266;2023-10-13T15:27:44;25.50;99.90
1447;DHT22;717;51.522;7.266;2023-10-13T15:30:22;25.50;99.90
1447;DHT22;717;51.522;7.266;2023-10-13T15:32:58;25.40;99.90
1447;DHT22;717;51.522;7.266;2023-10-13T15:35:29;25.40;99.90
1447;DHT22;717;51.522;7.266;2023-10-13T15:38:02;25.40;99.90
1447;DHT22;717;51.522;7.266;2023-10-13T15:40:33;25.40;99.90
1447;DHT22;717;51.522;7.266;2023-10-13T15:43:10;25.30;99.90
1447;DHT22;717;51.522;7.266;2023-10-13T15:45:40;25.30;99.90
1447;DHT22;717;51.522;7.266;2023-10-13T15:48:10;25.40;99.90
1447;DHT22;717;51.522;7.266;2023-10-13T15:50:46;25.40;99.90
1447;DHT22;717;51.522;7.266;2023-10-13T15:53:20;25.30;99.90
1447;DHT22;717;51.522;7.266;2023-10-13T15:55:52;25.30;99.90
1447;DHT22;717;51.522;7.266;2023-10-13T15:58:23;25.30;99.90
1447;DHT22;717;51.522;7.266;2023-10-13T16:00:54;25.30;99.90
1447;DHT22;717;51.522;7.266;2023-10-13T16:03:24;25.30;99.90
1447;DHT22;717;51.522;7.266;2023-10-13T16:05:57;25.20;99.90
1447;DHT22;717;51.522;7.266;2023-10-13T16:08:29;25.20;99.90
1447;DHT22;717;51.522;7.266;2023-10-13T16:11:11;25.20;99.90
1447;DHT22;717;51.522;7.266;2023-10-13T16:13:45;25.20;99.90
1447;DHT22;717;51.522;7.266;2023-10-13T16:16:18;25.20;99.90
1447;DHT22;717;51.522;7.266;2023-10-13T16:18:50;25.20;99.90
1447;DHT22;717;51.522;7.266;2023-10-13T16:21:21;25.20;99.90
1447;DHT22;717;51.522;7.266;2023-10-13T16:23:53;25.20;99.90
1447;DHT22;717;51.522;7.266;2023-10-13T16:26:23;25.20;99.90
1447;DHT22;717;51.522;7.266;2023-10-13T16:28:53;25.20;99.90
1447;DHT22;717;51.522;7.266;2023-10-13T16:31:24;25.10;99.90
1447;DHT22;717;51.522;7.266;2023-10-13T16:33:56;25.10;99.90
1447;DHT22;717;51.522;7.266;2023-10-13T16:36:26;25.10;99.90
1447;DHT22;717;51.522;7.266;2023-10-13T16:39:00;25.10;99.90
1447;DHT22;717;51.522;7.266;2023-10-13T16:41:30;25.10;99.90
1447;DHT22;717;51.522;7.266;2023-10-13T16:44:01;25.10;99.90
1447;DHT22;717;51.522;7.266;2023-10-13T16:46:36;25.00;99.90
1447;DHT22;717;51.522;7.266;2023-10-13T16:49:07;25.10;99.90
1447;DHT22;717;51.522;7.266;2023-10-13T16:51:38;25.00;99.90
1447;DHT22;717;51.522;7.266;2023-10-13T16:54:11;25.00;99.90
1447;DHT22;717;51.522;7.266;2023-10-13T16:56:41;25.00;99.90
1447;DHT22;717;51.522;7.266;2023-10-13T16:59:11;25.00;99.90
1447;DHT22;717;51.522;7.266;2023-10-13T17:01:41;25.00;99.90
1447;DHT22;717;51.522;7.266;2023-10-13T17:04:13;25.00;99.90
1447;DHT22;717;51.522;7.266;2023-10-13T17:06:46;24.90;99.90
1447;DHT22;717;51.522;7.266;2023-10-13T17:09:19;24.90;99.90
1447;DHT22;717;51.522;7.266;2023-10-13T17:11:51;24.90;99.90
1447;DHT22;717;51.522;7.266;2023-10-13T17:14:21;24.80;99.90
1447;DHT22;717;51.522;7.266;2023-10-13T17:16:51;24.70;99.90
1447;DHT22;717;51.522;7.266;2023-10-13T17:19:28;24.80;99.90
1447;DHT22;717;51.522;7.266;2023-10-13T17:21:58;24.80;99.90
1447;DHT22;717;51.522;7.266;2023-10-13T17:24:33;24.70;99.90